Time;durP1;ratioP1;P1;durP2;ratioP2;P2;SDS_P1;SDS_P2;PMS_P1;PMS_P2;Temp;Humidity;BMP_temperature;BMP_pressure;BME280_temperature;BME280_humidity;BME280_pressure;Samples;Min_cycle;Max_cycle;Signal;HPM_P1;HPM_P2
2023/11/10 00:01:16;;;;;;;8.97;5.27;;;;;;;;;;4925024;29;20114;-71
2023/11/10 00:03:41;;;;;;;10.33;6.00;;;;;;;;;;4928822;29;20443;-69
2023/11/10 00:06:07;;;;;;;12.37;5.73;;;;;;;;;;4923753;29;20090;-68
2023/11/10 00:08:32;;;;;;;9.93;5.77;;;;;;;;;;4923514;29;20078;-69
2023/11/10 00:10:58;;;;;;;9.87;5.77;;;;;;;;;;4924663;29;20101;-70
2023/11/10 00:13:24;;;;;;;11.87;6.30;;;;;;;;;;4909776;29;20049;-68
2023/11/10 00:15:49;;;;;;;11.80;6.53;;;;;;;;;;4927727;29;20020;-69
2023/11/10 00:18:14;;;;;;;11.70;7.27;;;;;;;;;;4926586;29;20024;-70
2023/11/10 00:20:41;;;;;;;13.07;6.90;;;;;;;;;;4926762;29;20197;-69
2023/11/10 00:23:07;;;;;;;12.33;7.27;;;;;;;;;;4929338;29;20369;-67
2023/11/10 00:25:32;;;;;;;11.57;6.97;;;;;;;;;;4927012;29;20381;-71
2023/11/10 00:27:59;;;;;;;13.67;7.77;;;;;;;;;;4927296;29;20586;-67
2023/11/10 00:30:25;;;;;;;11.87;7.53;;;;;;;;;;4926758;29;20058;-66
2023/11/10 00:32:51;;;;;;;11.17;6.80;;;;;;;;;;4926779;29;20404;-67
2023/11/10 00:35:16;;;;;;;12.60;7.23;;;;;;;;;;4926869;29;20028;-67
2023/11/10 00:37:41;;;;;;;12.40;7.37;;;;;;;;;;4926693;29;20042;-68
2023/11/10 00:40:07;;;;;;;12.20;8.17;;;;;;;;;;4930278;29;20058;-67
2023/11/10 00:42:32;;;;;;;12.97;7.97;;;;;;;;;;4929878;29;20516;-66
2023/11/10 00:44:57;;;;;;;14.23;8.73;;;;;;;;;;4930488;29;20027;-68
2023/11/10 00:47:23;;;;;;;14.37;8.00;;;;;;;;;;4930277;29;20031;-65
2023/11/10 00:49:48;;;;;;;13.90;7.80;;;;;;;;;;4930450;29;20020;-67
2023/11/10 00:52:14;;;;;;;13.00;7.57;;;;;;;;;;4930693;29;20020;-68
2023/11/10 00:54:39;;;;;;;14.63;8.90;;;;;;;;;;4930220;29;20371;-69
2023/11/10 00:57:04;;;;;;;17.40;8.27;;;;;;;;;;4930385;29;20650;-68
2023/11/10 00:59:29;;;;;;;13.43;8.40;;;;;;;;;;4930239;29;20384;-68
2023/11/10 01:01:55;;;;;;;13.50;8.63;;;;;;;;;;4930209;29;20106;-68
2023/11/10 01:04:20;;;;;;;15.27;8.27;;;;;;;;;;4930030;29;20024;-66
2023/11/10 01:06:46;;;;;;;13.87;8.47;;;;;;;;;;4932102;29;20075;-68
2023/11/10 01:09:12;;;;;;;14.80;7.77;;;;;;;;;;4930226;29;20098;-65
2023/11/10 01:11:37;;;;;;;14.20;8.70;;;;;;;;;;4930491;29;20027;-66
2023/11/10 01:14:04;;;;;;;15.47;8.40;;;;;;;;;;4929821;29;20057;-66
2023/11/10 01:16:29;;;;;;;13.43;7.53;;;;;;;;;;4929645;29;20031;-68
2023/11/10 01:18:55;;;;;;;12.30;7.77;;;;;;;;;;4929975;29;20236;-67
2023/11/10 01:21:21;;;;;;;15.37;8.67;;;;;;;;;;4929470;29;20428;-67
2023/11/10 01:23:47;;;;;;;15.10;9.00;;;;;;;;;;4929718;29;20632;-65
2023/11/10 01:26:13;;;;;;;12.23;7.50;;;;;;;;;;4929487;29;20111;-68
2023/11/10 01:28:39;;;;;;;18.37;9.50;;;;;;;;;;4929642;29;20024;-66
2023/11/10 01:31:04;;;;;;;13.63;9.10;;;;;;;;;;4929909;29;20071;-66
2023/11/10 01:33:29;;;;;;;18.10;9.13;;;;;;;;;;4925855;29;20098;-67
2023/11/10 01:35:55;;;;;;;14.87;8.33;;;;;;;;;;4928983;29;20028;-67
2023/11/10 01:38:20;;;;;;;12.97;7.97;;;;;;;;;;4928091;29;20416;-67
2023/11/10 01:40:45;;;;;;;12.37;7.37;;;;;;;;;;4929711;29;20118;-66
2023/11/10 01:43:11;;;;;;;12.30;8.17;;;;;;;;;;4929445;29;20031;-65
2023/11/10 01:45:36;;;;;;;12.10;7.87;;;;;;;;;;4929254;29;20395;-67
2023/11/10 01:48:05;;;;;;;12.20;7.97;;;;;;;;;;4929372;29;20027;-63
2023/11/10 01:50:31;;;;;;;13.63;7.23;;;;;;;;;;4928790;29;20067;-67
2023/11/10 01:52:57;;;;;;;12.67;7.60;;;;;;;;;;4929282;29;20650;-67
2023/11/10 01:55:23;;;;;;;12.37;7.53;;;;;;;;;;4928801;29;20042;-67
2023/11/10 01:57:48;;;;;;;13.50;7.50;;;;;;;;;;4929381;29;20071;-67
2023/11/10 02:00:15;;;;;;;11.70;6.57;;;;;;;;;;4928930;29;20024;-66
2023/11/10 02:02:41;;;;;;;13.50;7.50;;;;;;;;;;4929476;29;20102;-64
2023/11/10 02:05:08;;;;;;;10.60;6.53;;;;;;;;;;4929220;29;20374;-67
2023/11/10 02:07:33;;;;;;;11.23;6.43;;;;;;;;;;4933135;29;20027;-67
2023/11/10 02:09:58;;;;;;;9.80;6.07;;;;;;;;;;4928713;29;20027;-67
2023/11/10 02:12:24;;;;;;;12.63;6.27;;;;;;;;;;4927829;29;20038;-67
2023/11/10 02:14:49;;;;;;;8.97;5.60;;;;;;;;;;4928683;29;20504;-67
2023/11/10 02:17:14;;;;;;;11.40;6.00;;;;;;;;;;4928600;29;20091;-66
2023/11/10 02:19:40;;;;;;;8.40;5.17;;;;;;;;;;4928771;29;20350;-66
2023/11/10 02:22:06;;;;;;;10.27;5.87;;;;;;;;;;4929089;29;20392;-67
2023/11/10 02:24:31;;;;;;;9.47;5.33;;;;;;;;;;4928499;29;20253;-67
2023/11/10 02:26:57;;;;;;;9.60;5.37;;;;;;;;;;4911782;29;20054;-66
2023/11/10 02:29:22;;;;;;;9.47;5.30;;;;;;;;;;4929839;29;20023;-67
2023/11/10 02:31:49;;;;;;;9.40;5.20;;;;;;;;;;4928647;29;20051;-66
2023/11/10 02:34:14;;;;;;;12.63;6.50;;;;;;;;;;4928688;29;20115;-67
2023/11/10 02:36:40;;;;;;;10.43;5.63;;;;;;;;;;4929183;29;20443;-67
2023/11/10 02:39:05;;;;;;;9.60;5.90;;;;;;;;;;4928581;29;20388;-68
2023/11/10 02:41:30;;;;;;;10.73;5.80;;;;;;;;;;4928029;29;20054;-67
2023/11/10 02:43:56;;;;;;;11.23;5.70;;;;;;;;;;4928491;29;20145;-64
2023/11/10 02:46:21;;;;;;;9.83;5.37;;;;;;;;;;4928349;29;20698;-65
2023/11/10 02:48:46;;;;;;;11.67;5.97;;;;;;;;;;4928307;29;20471;-67
2023/11/10 02:51:12;;;;;;;11.83;6.57;;;;;;;;;;4928430;29;20296;-66
2023/11/10 02:53:38;;;;;;;12.83;6.53;;;;;;;;;;4928346;29;20027;-67
2023/11/10 02:56:03;;;;;;;14.37;7.03;;;;;;;;;;4928381;29;20354;-66
2023/11/10 02:58:30;;;;;;;11.67;6.23;;;;;;;;;;4927830;29;20090;-65
2023/11/10 03:00:55;;;;;;;15.87;8.03;;;;;;;;;;4927359;29;20488;-65
2023/11/10 03:03:21;;;;;;;16.80;9.27;;;;;;;;;;4928086;29;20027;-66
2023/11/10 03:05:46;;;;;;;15.00;9.10;;;;;;;;;;4928153;29;20499;-66
2023/11/10 03:08:11;;;;;;;16.13;9.10;;;;;;;;;;4927785;29;20042;-66
2023/11/10 03:10:36;;;;;;;16.27;8.60;;;;;;;;;;4927622;29;20039;-67
2023/11/10 03:13:03;;;;;;;12.03;7.20;;;;;;;;;;4927744;29;20027;-67
2023/11/10 03:15:28;;;;;;;16.43;8.10;;;;;;;;;;4929206;29;20106;-66
2023/11/10 03:17:55;;;;;;;14.20;8.03;;;;;;;;;;4930817;29;20492;-67
2023/11/10 03:20:20;;;;;;;15.57;8.57;;;;;;;;;;4927767;29;20531;-67
2023/11/10 03:22:45;;;;;;;14.90;8.40;;;;;;;;;;4927781;29;20024;-66
2023/11/10 03:25:11;;;;;;;13.60;7.63;;;;;;;;;;4927685;29;20027;-63
2023/11/10 03:27:36;;;;;;;12.70;8.07;;;;;;;;;;4927996;29;20039;-66
2023/11/10 03:30:03;;;;;;;12.70;7.47;;;;;;;;;;4927760;29;20269;-66
2023/11/10 03:32:28;;;;;;;14.87;7.23;;;;;;;;;;4926944;29;20117;-66
2023/11/10 03:34:53;;;;;;;15.40;7.67;;;;;;;;;;4927029;29;20059;-67
2023/11/10 03:37:19;;;;;;;13.27;6.87;;;;;;;;;;4927215;29;20104;-66
2023/11/10 03:39:44;;;;;;;14.97;6.93;;;;;;;;;;4926958;29;20031;-67
2023/11/10 03:42:10;;;;;;;9.93;6.00;;;;;;;;;;4927232;29;20056;-66
2023/11/10 03:44:36;;;;;;;12.53;6.10;;;;;;;;;;4927123;29;20032;-66
2023/11/10 03:47:01;;;;;;;13.47;5.43;;;;;;;;;;4927584;29;20054;-65
2023/11/10 03:49:26;;;;;;;10.30;5.70;;;;;;;;;;4927258;29;20032;-65
2023/11/10 03:51:52;;;;;;;10.50;5.80;;;;;;;;;;4926742;29;20034;-67
2023/11/10 03:54:17;;;;;;;9.60;4.77;;;;;;;;;;4926733;29;20403;-66
2023/11/10 03:56:43;;;;;;;8.77;4.87;;;;;;;;;;4927194;29;20024;-65
2023/11/10 03:59:09;;;;;;;9.83;5.00;;;;;;;;;;4927140;29;20520;-66
2023/11/10 04:01:34;;;;;;;9.67;4.87;;;;;;;;;;4926885;29;20496;-68
2023/11/10 04:04:00;;;;;;;9.20;4.43;;;;;;;;;;4927259;29;20094;-69
2023/11/10 04:06:25;;;;;;;11.87;4.40;;;;;;;;;;4930646;29;20103;-67
2023/11/10 04:08:50;;;;;;;8.27;3.83;;;;;;;;;;4927569;29;20481;-69
2023/11/10 04:11:16;;;;;;;8.27;3.83;;;;;;;;;;4926647;29;20476;-66
2023/11/10 04:13:41;;;;;;;9.07;4.03;;;;;;;;;;4930637;29;20405;-69
2023/11/10 04:16:14;;;;;;;10.20;3.83;;;;;;;;;;4931120;29;20031;-68
2023/11/10 04:18:40;;;;;;;10.20;3.73;;;;;;;;;;4930822;29;20563;-68
2023/11/10 04:21:05;;;;;;;9.30;4.17;;;;;;;;;;4930510;29;20023;-69
2023/11/10 04:23:30;;;;;;;10.27;4.00;;;;;;;;;;4934781;29;20055;-68
2023/11/10 04:25:55;;;;;;;9.23;3.83;;;;;;;;;;4932938;29;20502;-67
2023/11/10 04:28:21;;;;;;;8.10;3.97;;;;;;;;;;4930301;29;20530;-68
2023/11/10 04:30:46;;;;;;;9.47;3.77;;;;;;;;;;4931114;29;20432;-66
2023/11/10 04:33:11;;;;;;;7.53;3.70;;;;;;;;;;4931138;29;20027;-69
2023/11/10 04:35:36;;;;;;;8.27;3.57;;;;;;;;;;4934932;29;20081;-69
2023/11/10 04:38:02;;;;;;;11.90;3.90;;;;;;;;;;4930674;29;20087;-68
2023/11/10 04:40:27;;;;;;;11.57;3.80;;;;;;;;;;4929948;29;20034;-68
2023/11/10 04:42:56;;;;;;;11.77;4.10;;;;;;;;;;4894378;29;20401;-68
2023/11/10 04:45:22;;;;;;;11.27;3.87;;;;;;;;;;4893197;29;20088;-69
2023/11/10 04:47:51;;;;;;;10.40;4.10;;;;;;;;;;4893176;29;20096;-69
2023/11/10 04:50:16;;;;;;;9.37;4.33;;;;;;;;;;4895975;29;20380;-72
2023/11/10 04:52:41;;;;;;;12.70;4.17;;;;;;;;;;4898419;29;20039;-72
2023/11/10 04:55:07;;;;;;;11.93;3.97;;;;;;;;;;4894360;29;20036;-69
2023/11/10 04:57:33;;;;;;;8.13;3.70;;;;;;;;;;4893351;29;20476;-67
2023/11/10 05:00:00;;;;;;;8.10;3.73;;;;;;;;;;4893152;29;20036;-67
2023/11/10 05:02:27;;;;;;;7.53;3.70;;;;;;;;;;4892345;29;20168;-66
2023/11/10 05:04:52;;;;;;;10.93;4.20;;;;;;;;;;4876463;29;20032;-66
2023/11/10 05:07:17;;;;;;;10.37;4.00;;;;;;;;;;4896542;29;20032;-67
2023/11/10 05:09:42;;;;;;;11.53;4.40;;;;;;;;;;4894095;29;20112;-66
2023/11/10 05:12:09;;;;;;;8.57;4.27;;;;;;;;;;4893012;29;20051;-68
2023/11/10 05:14:39;;;;;;;7.97;4.20;;;;;;;;;;4892902;29;20075;-67
2023/11/10 05:17:04;;;;;;;10.43;4.50;;;;;;;;;;4893205;29;20386;-67
2023/11/10 05:19:30;;;;;;;9.30;4.60;;;;;;;;;;4892695;29;20064;-66
2023/11/10 05:21:55;;;;;;;8.03;4.50;;;;;;;;;;4895112;29;20107;-67
2023/11/10 05:24:20;;;;;;;12.03;5.40;;;;;;;;;;4894098;29;20036;-67
2023/11/10 05:26:46;;;;;;;11.50;5.07;;;;;;;;;;4892874;29;20055;-67
2023/11/10 05:29:11;;;;;;;9.77;4.63;;;;;;;;;;4893019;29;20104;-66
2023/11/10 05:31:36;;;;;;;10.77;4.93;;;;;;;;;;4894345;29;20046;-66
2023/11/10 05:34:03;;;;;;;8.80;4.87;;;;;;;;;;4889090;29;21478;-67
2023/11/10 05:36:28;;;;;;;13.03;4.97;;;;;;;;;;4895515;29;20484;-68
2023/11/10 05:38:54;;;;;;;11.30;4.53;;;;;;;;;;4917361;29;20063;-67
2023/11/10 05:41:19;;;;;;;10.70;4.37;;;;;;;;;;4918678;29;20465;-67
2023/11/10 05:43:46;;;;;;;9.27;4.70;;;;;;;;;;4929695;29;20093;-67
2023/11/10 05:46:11;;;;;;;9.43;4.47;;;;;;;;;;4931690;29;20031;-67
2023/11/10 05:48:37;;;;;;;8.40;4.30;;;;;;;;;;4929731;29;20468;-68
2023/11/10 05:51:03;;;;;;;7.90;4.40;;;;;;;;;;4928311;29;20019;-68
2023/11/10 05:53:28;;;;;;;10.83;4.80;;;;;;;;;;4942491;29;20375;-67
2023/11/10 05:55:54;;;;;;;9.50;4.07;;;;;;;;;;4938026;29;20051;-67
2023/11/10 05:58:19;;;;;;;7.87;4.47;;;;;;;;;;4932872;29;20059;-66
2023/11/10 06:00:44;;;;;;;11.07;3.90;;;;;;;;;;4933721;29;20035;-67
2023/11/10 06:03:09;;;;;;;8.80;4.10;;;;;;;;;;4942849;29;20024;-67
2023/11/10 06:05:35;;;;;;;9.43;4.13;;;;;;;;;;4939245;29;20176;-66
2023/11/10 06:08:00;;;;;;;10.37;4.40;;;;;;;;;;4945036;29;20122;-67
2023/11/10 06:10:25;;;;;;;9.77;4.20;;;;;;;;;;4930698;29;20499;-67
2023/11/10 06:12:51;;;;;;;7.83;4.10;;;;;;;;;;4940959;29;20035;-67
2023/11/10 06:15:17;;;;;;;8.00;4.40;;;;;;;;;;4947886;29;20027;-66
2023/11/10 06:17:45;;;;;;;8.43;3.97;;;;;;;;;;4940798;29;20038;-67
2023/11/10 06:20:10;;;;;;;8.53;4.27;;;;;;;;;;4948007;29;20027;-67
2023/11/10 06:22:37;;;;;;;7.60;4.43;;;;;;;;;;4948010;29;20062;-67
2023/11/10 06:25:03;;;;;;;9.10;4.70;;;;;;;;;;4947235;29;20650;-68
2023/11/10 06:27:28;;;;;;;9.80;4.70;;;;;;;;;;4940331;29;20022;-67
2023/11/10 06:29:53;;;;;;;14.53;5.10;;;;;;;;;;4936136;29;20030;-67
2023/11/10 06:32:19;;;;;;;10.20;5.10;;;;;;;;;;4940532;29;20031;-66
2023/11/10 06:34:44;;;;;;;10.67;4.57;;;;;;;;;;4947334;28;20027;-68
2023/11/10 06:37:12;;;;;;;10.20;4.67;;;;;;;;;;4944939;29;20086;-67
2023/11/10 06:39:37;;;;;;;9.57;5.20;;;;;;;;;;4942724;29;20386;-67
2023/11/10 06:42:02;;;;;;;9.23;5.30;;;;;;;;;;4947361;29;20043;-67
2023/11/10 06:44:28;;;;;;;9.77;5.00;;;;;;;;;;4946262;29;20023;-67
2023/11/10 06:46:53;;;;;;;8.20;5.23;;;;;;;;;;4942243;29;20560;-66
2023/11/10 06:49:18;;;;;;;10.63;5.40;;;;;;;;;;4939787;29;20023;-67
2023/11/10 06:51:44;;;;;;;15.13;5.93;;;;;;;;;;4947484;29;20098;-66
2023/11/10 06:54:10;;;;;;;13.47;6.03;;;;;;;;;;4947976;29;20023;-67
2023/11/10 06:56:35;;;;;;;13.77;6.60;;;;;;;;;;4941609;29;20034;-67
2023/11/10 06:59:00;;;;;;;10.47;5.60;;;;;;;;;;4928747;29;20106;-67
2023/11/10 07:01:28;;;;;;;10.80;6.03;;;;;;;;;;4929065;29;20422;-68
2023/11/10 07:03:54;;;;;;;11.33;6.53;;;;;;;;;;4928916;29;20067;-67
2023/11/10 07:06:19;;;;;;;12.20;6.67;;;;;;;;;;4928999;29;20024;-66
2023/11/10 07:08:45;;;;;;;11.37;6.30;;;;;;;;;;4928728;29;20042;-67
2023/11/10 07:11:12;;;;;;;11.70;6.40;;;;;;;;;;4936843;29;20050;-67
2023/11/10 07:13:37;;;;;;;10.50;5.33;;;;;;;;;;4944382;29;20476;-68
2023/11/10 07:16:03;;;;;;;12.20;6.47;;;;;;;;;;4946494;29;20206;-67
2023/11/10 07:18:30;;;;;;;10.30;5.90;;;;;;;;;;4942451;29;20086;-67
2023/11/10 07:20:56;;;;;;;9.67;6.10;;;;;;;;;;4939634;29;20205;-66
2023/11/10 07:23:21;;;;;;;13.23;6.43;;;;;;;;;;4946699;29;20027;-67
2023/11/10 07:25:46;;;;;;;10.63;6.30;;;;;;;;;;4947671;29;20431;-67
2023/11/10 07:28:12;;;;;;;12.60;5.50;;;;;;;;;;4946738;29;20810;-68
2023/11/10 07:30:39;;;;;;;12.57;5.93;;;;;;;;;;4942303;29;20098;-67
2023/11/10 07:33:04;;;;;;;10.73;6.20;;;;;;;;;;4943382;29;20109;-66
2023/11/10 07:35:30;;;;;;;9.50;5.17;;;;;;;;;;4941552;29;20106;-67
2023/11/10 07:37:56;;;;;;;12.70;5.30;;;;;;;;;;4946386;29;20037;-67
2023/11/10 07:40:21;;;;;;;11.47;5.90;;;;;;;;;;4942365;29;20039;-68
2023/11/10 07:42:47;;;;;;;11.73;5.83;;;;;;;;;;4944279;29;20031;-67
2023/11/10 07:45:16;;;;;;;11.27;5.50;;;;;;;;;;4947054;29;20023;-66
2023/11/10 07:47:48;;;;;;;13.43;6.00;;;;;;;;;;4942623;28;20480;-67
2023/11/10 07:50:14;;;;;;;9.43;4.33;;;;;;;;;;4945297;29;20755;-67
2023/11/10 07:52:40;;;;;;;9.27;5.50;;;;;;;;;;4941910;29;20428;-66
2023/11/10 07:55:06;;;;;;;12.20;5.27;;;;;;;;;;4947569;29;20403;-67
2023/11/10 07:57:32;;;;;;;8.70;5.43;;;;;;;;;;4939792;29;20066;-67
2023/11/10 07:59:58;;;;;;;9.80;5.47;;;;;;;;;;4947106;29;20449;-68
2023/11/10 08:02:23;;;;;;;10.80;4.90;;;;;;;;;;4946280;28;20367;-68
2023/11/10 08:04:48;;;;;;;10.37;5.17;;;;;;;;;;4937570;29;20024;-67
2023/11/10 08:07:14;;;;;;;9.93;5.50;;;;;;;;;;4941754;29;20384;-67
2023/11/10 08:09:39;;;;;;;9.80;5.63;;;;;;;;;;4943095;29;20550;-67
2023/11/10 08:12:04;;;;;;;11.40;4.73;;;;;;;;;;4942637;29;20042;-68
2023/11/10 08:14:30;;;;;;;9.83;4.70;;;;;;;;;;4945374;29;20026;-67
2023/11/10 08:16:55;;;;;;;10.43;4.93;;;;;;;;;;4946476;29;20460;-68
2023/11/10 08:19:20;;;;;;;9.63;4.13;;;;;;;;;;4936212;29;20231;-67
2023/11/10 08:21:45;;;;;;;11.00;5.10;;;;;;;;;;4946238;29;20024;-68
2023/11/10 08:24:11;;;;;;;14.13;4.23;;;;;;;;;;4947004;29;20016;-67
2023/11/10 08:26:37;;;;;;;8.27;4.87;;;;;;;;;;4943758;29;20318;-66
2023/11/10 08:29:04;;;;;;;8.57;4.23;;;;;;;;;;4937146;29;20106;-66
2023/11/10 08:31:29;;;;;;;10.30;3.80;;;;;;;;;;4931645;29;20285;-67
2023/11/10 08:33:54;;;;;;;11.67;3.70;;;;;;;;;;4944134;29;20106;-68
2023/11/10 08:36:22;;;;;;;7.97;3.70;;;;;;;;;;4940339;29;20094;-68
2023/11/10 08:38:48;;;;;;;7.93;3.73;;;;;;;;;;4944571;29;20031;-67
2023/11/10 08:41:14;;;;;;;8.30;3.57;;;;;;;;;;4937958;29;20071;-66
2023/11/10 08:43:40;;;;;;;7.93;4.10;;;;;;;;;;4946427;29;20027;-67
2023/11/10 08:46:06;;;;;;;7.53;3.57;;;;;;;;;;4945909;29;20062;-67
2023/11/10 08:48:32;;;;;;;9.40;3.57;;;;;;;;;;4945700;29;20039;-67
2023/11/10 08:50:58;;;;;;;6.50;2.73;;;;;;;;;;4939296;29;20090;-66
2023/11/10 08:53:23;;;;;;;11.87;3.50;;;;;;;;;;4945682;29;20369;-68
2023/11/10 08:55:48;;;;;;;7.13;2.90;;;;;;;;;;4946851;29;20053;-63
2023/11/10 08:58:14;;;;;;;8.03;2.57;;;;;;;;;;4934470;29;20640;-68
2023/11/10 09:00:40;;;;;;;10.93;2.87;;;;;;;;;;4930546;29;20040;-65
2023/11/10 09:03:05;;;;;;;7.43;2.97;;;;;;;;;;4931105;29;20051;-68
2023/11/10 09:05:30;;;;;;;8.70;3.20;;;;;;;;;;4931160;29;20051;-67
2023/11/10 09:07:56;;;;;;;6.50;3.60;;;;;;;;;;4931179;29;20473;-66
2023/11/10 09:10:23;;;;;;;7.37;3.40;;;;;;;;;;4931318;29;20508;-68
2023/11/10 09:12:48;;;;;;;5.33;2.93;;;;;;;;;;4932225;29;20725;-65
2023/11/10 09:15:14;;;;;;;6.27;3.10;;;;;;;;;;4945007;29;20039;-67
2023/11/10 09:17:40;;;;;;;7.70;3.50;;;;;;;;;;4947891;29;20070;-68
2023/11/10 09:20:06;;;;;;;8.90;3.57;;;;;;;;;;4946703;29;20464;-67
2023/11/10 09:22:34;;;;;;;7.53;4.03;;;;;;;;;;4935893;29;20035;-67
2023/11/10 09:24:59;;;;;;;8.50;3.90;;;;;;;;;;4949840;29;20031;-67
2023/11/10 09:27:24;;;;;;;7.43;3.67;;;;;;;;;;4937752;29;20019;-68
2023/11/10 09:29:50;;;;;;;7.33;3.30;;;;;;;;;;4949876;29;20043;-65
2023/11/10 09:32:15;;;;;;;7.77;3.13;;;;;;;;;;4945009;29;20483;-68
2023/11/10 09:34:40;;;;;;;7.63;3.83;;;;;;;;;;4945250;29;20443;-66
2023/11/10 09:37:06;;;;;;;7.27;3.70;;;;;;;;;;4939858;29;20492;-67
2023/11/10 09:39:31;;;;;;;9.47;3.90;;;;;;;;;;4947336;29;20599;-65
2023/11/10 09:42:02;;;;;;;8.73;3.77;;;;;;;;;;4942680;29;20067;-68
2023/11/10 09:44:27;;;;;;;6.17;3.40;;;;;;;;;;4941405;29;20048;-66
2023/11/10 09:46:53;;;;;;;6.87;3.70;;;;;;;;;;4946289;29;20401;-66
2023/11/10 09:49:18;;;;;;;7.33;3.50;;;;;;;;;;4948607;29;20079;-67
2023/11/10 09:51:45;;;;;;;9.63;3.50;;;;;;;;;;4940398;29;20039;-65
2023/11/10 09:54:10;;;;;;;7.30;3.47;;;;;;;;;;4940186;29;20039;-63
2023/11/10 09:56:38;;;;;;;9.23;3.10;;;;;;;;;;4949481;29;20074;-64
2023/11/10 09:59:05;;;;;;;6.77;2.63;;;;;;;;;;4944861;29;20034;-64
2023/11/10 10:01:31;;;;;;;5.90;2.40;;;;;;;;;;4948168;28;20109;-65
2023/11/10 10:03:56;;;;;;;6.40;2.60;;;;;;;;;;4937565;29;20488;-64
2023/11/10 10:06:22;;;;;;;7.33;2.37;;;;;;;;;;4945654;29;20038;-63
2023/11/10 10:08:47;;;;;;;9.33;2.60;;;;;;;;;;4943248;29;20174;-64
2023/11/10 10:11:13;;;;;;;9.47;2.60;;;;;;;;;;4945725;28;20391;-64
2023/11/10 10:13:41;;;;;;;6.07;2.10;;;;;;;;;;4944935;29;20035;-64
2023/11/10 10:16:07;;;;;;;5.17;1.97;;;;;;;;;;4941532;29;20031;-64
2023/11/10 10:18:33;;;;;;;5.93;2.30;;;;;;;;;;4947829;29;20023;-64
2023/11/10 10:20:59;;;;;;;8.17;2.20;;;;;;;;;;4947997;29;20055;-65
2023/11/10 10:23:25;;;;;;;9.40;2.00;;;;;;;;;;4943257;29;20023;-65
2023/11/10 10:25:52;;;;;;;10.30;2.17;;;;;;;;;;4936146;29;20499;-62
2023/11/10 10:28:17;;;;;;;5.30;1.80;;;;;;;;;;4929446;29;20111;-62
2023/11/10 10:30:44;;;;;;;10.20;2.23;;;;;;;;;;4942420;29;20568;-64
2023/11/10 10:33:10;;;;;;;7.13;2.53;;;;;;;;;;4936777;29;20111;-65
2023/11/10 10:35:35;;;;;;;8.87;2.03;;;;;;;;;;4937740;29;20122;-64
2023/11/10 10:38:04;;;;;;;5.77;1.90;;;;;;;;;;4941592;29;20093;-65
2023/11/10 10:40:29;;;;;;;6.83;2.50;;;;;;;;;;4941559;29;20019;-64
2023/11/10 10:42:54;;;;;;;6.40;2.07;;;;;;;;;;4947522;29;20042;-64
2023/11/10 10:45:20;;;;;;;8.00;2.07;;;;;;;;;;4946779;29;20027;-64
2023/11/10 10:47:45;;;;;;;7.27;2.10;;;;;;;;;;4939489;29;20175;-61
2023/11/10 10:50:11;;;;;;;5.97;1.73;;;;;;;;;;4948363;29;20039;-65
2023/11/10 10:52:37;;;;;;;5.43;1.70;;;;;;;;;;4947082;29;20484;-66
2023/11/10 10:55:05;;;;;;;8.70;2.20;;;;;;;;;;4933340;29;20059;-62
2023/11/10 10:57:31;;;;;;;5.30;2.20;;;;;;;;;;4928863;29;20066;-63
2023/11/10 10:59:56;;;;;;;5.00;2.37;;;;;;;;;;4928888;29;20209;-64
2023/11/10 11:02:22;;;;;;;7.63;2.93;;;;;;;;;;4929059;29;20404;-65
2023/11/10 11:04:47;;;;;;;7.60;3.27;;;;;;;;;;4929283;29;20031;-64
2023/11/10 11:07:31;;;;;;;6.33;3.20;;;;;;;;;;4928581;29;20403;-63
2023/11/10 11:10:08;;;;;;;6.57;3.40;;;;;;;;;;4928393;29;20035;-65
2023/11/10 11:12:54;;;;;;;9.83;3.70;;;;;;;;;;4944826;29;20034;-66
2023/11/10 11:15:39;;;;;;;6.50;3.83;;;;;;;;;;4946735;29;20027;-63
2023/11/10 11:18:22;;;;;;;5.87;3.30;;;;;;;;;;4940162;29;20031;-64
2023/11/10 11:20:48;;;;;;;6.90;4.07;;;;;;;;;;4944458;29;20023;-65
2023/11/10 11:23:13;;;;;;;8.67;3.50;;;;;;;;;;4946914;28;20106;-64
2023/11/10 11:25:39;;;;;;;6.13;3.53;;;;;;;;;;4918570;29;20119;-61
2023/11/10 11:28:04;;;;;;;10.37;3.67;;;;;;;;;;4927991;29;20027;-64
2023/11/10 11:30:36;;;;;;;6.17;3.17;;;;;;;;;;4928744;29;20106;-62
2023/11/10 11:33:11;;;;;;;7.10;3.20;;;;;;;;;;4928572;29;20473;-65
2023/11/10 11:35:37;;;;;;;4.73;3.10;;;;;;;;;;4933509;29;20030;-65
2023/11/10 11:38:02;;;;;;;6.43;2.87;;;;;;;;;;4947334;29;20031;-62
2023/11/10 11:40:32;;;;;;;7.00;2.80;;;;;;;;;;4930213;29;20775;-63
2023/11/10 11:43:07;;;;;;;6.17;3.10;;;;;;;;;;4942598;29;20213;-64
2023/11/10 11:45:33;;;;;;;8.80;2.90;;;;;;;;;;4946511;29;20468;-65
2023/11/10 11:47:59;;;;;;;6.63;2.83;;;;;;;;;;4946496;29;20027;-64
2023/11/10 11:50:24;;;;;;;5.23;2.53;;;;;;;;;;4929700;29;20043;-64
2023/11/10 11:52:49;;;;;;;6.53;2.90;;;;;;;;;;4935470;29;20051;-63
2023/11/10 11:55:15;;;;;;;5.97;2.67;;;;;;;;;;4942367;29;20102;-61
2023/11/10 11:57:42;;;;;;;6.60;2.87;;;;;;;;;;4928088;29;20095;-62
2023/11/10 12:00:08;;;;;;;7.33;2.93;;;;;;;;;;4930572;29;20371;-65
2023/11/10 12:02:39;;;;;;;6.57;2.80;;;;;;;;;;4936178;29;20023;-64
2023/11/10 12:05:06;;;;;;;6.30;2.87;;;;;;;;;;4943147;29;20086;-63
2023/11/10 12:07:31;;;;;;;4.90;2.50;;;;;;;;;;4942499;29;20023;-61
2023/11/10 12:09:57;;;;;;;6.37;2.50;;;;;;;;;;4943533;29;20026;-64
2023/11/10 12:12:22;;;;;;;6.77;2.53;;;;;;;;;;4937445;29;20034;-65
2023/11/10 12:14:50;;;;;;;4.83;2.23;;;;;;;;;;4947041;29;20082;-61
2023/11/10 12:17:15;;;;;;;6.67;2.30;;;;;;;;;;4944052;29;20539;-65
2023/11/10 12:19:43;;;;;;;4.67;2.10;;;;;;;;;;4945963;29;20058;-63
2023/11/10 12:22:09;;;;;;;5.83;2.17;;;;;;;;;;4936063;29;20254;-63
2023/11/10 12:24:35;;;;;;;6.83;2.57;;;;;;;;;;4941280;29;20127;-64
2023/11/10 12:27:00;;;;;;;4.73;2.20;;;;;;;;;;4935190;29;20400;-61
2023/11/10 12:29:28;;;;;;;5.20;2.10;;;;;;;;;;4946164;29;20023;-62
2023/11/10 12:31:53;;;;;;;4.30;1.90;;;;;;;;;;4939377;29;20035;-63
2023/11/10 12:34:19;;;;;;;9.10;2.30;;;;;;;;;;4942097;28;20031;-64
2023/11/10 12:36:45;;;;;;;5.77;2.30;;;;;;;;;;4949091;29;20019;-62
2023/11/10 12:39:17;;;;;;;7.03;2.00;;;;;;;;;;4950150;29;20023;-64
2023/11/10 12:41:46;;;;;;;3.88;1.83;;;;;;;;;;4946462;29;20443;-64
2023/11/10 12:44:12;;;;;;;7.07;2.00;;;;;;;;;;4937840;29;20038;-64
2023/11/10 12:46:48;;;;;;;5.50;2.00;;;;;;;;;;4949593;29;20525;-63
2023/11/10 12:49:13;;;;;;;5.40;1.70;;;;;;;;;;4949484;29;20027;-63
2023/11/10 12:51:38;;;;;;;7.17;2.30;;;;;;;;;;4946307;29;20042;-64
2023/11/10 12:54:07;;;;;;;6.00;1.93;;;;;;;;;;4936747;29;20050;-62
2023/11/10 12:56:32;;;;;;;4.50;1.80;;;;;;;;;;4936368;29;20587;-63
2023/11/10 12:59:03;;;;;;;4.97;1.70;;;;;;;;;;4929960;29;20031;-63
2023/11/10 13:01:30;;;;;;;6.10;1.63;;;;;;;;;;4947365;28;20500;-64
2023/11/10 13:03:55;;;;;;;6.03;1.80;;;;;;;;;;4950053;29;20429;-63
2023/11/10 13:06:21;;;;;;;6.53;1.60;;;;;;;;;;4940771;29;20062;-64
2023/11/10 13:08:46;;;;;;;5.37;1.80;;;;;;;;;;4930848;29;20027;-63
2023/11/10 13:11:13;;;;;;;4.80;1.73;;;;;;;;;;4937203;29;20107;-64
2023/11/10 13:13:39;;;;;;;4.67;1.63;;;;;;;;;;4931476;29;20031;-63
2023/11/10 13:16:07;;;;;;;9.63;1.70;;;;;;;;;;4942516;29;20372;-63
2023/11/10 13:18:32;;;;;;;6.20;1.70;;;;;;;;;;4932352;29;20027;-64
2023/11/10 13:20:58;;;;;;;6.07;1.80;;;;;;;;;;4936768;29;20252;-64
2023/11/10 13:23:25;;;;;;;4.67;1.50;;;;;;;;;;4943472;29;20391;-63
2023/11/10 13:25:50;;;;;;;5.97;2.00;;;;;;;;;;4925711;29;20272;-64
2023/11/10 13:28:15;;;;;;;6.87;2.03;;;;;;;;;;4946128;29;20528;-63
2023/11/10 13:30:40;;;;;;;10.83;2.13;;;;;;;;;;4943513;29;20649;-64
2023/11/10 13:33:08;;;;;;;6.70;2.10;;;;;;;;;;4949563;29;20506;-63
2023/11/10 13:35:35;;;;;;;6.63;1.93;;;;;;;;;;4948539;29;20039;-65
2023/11/10 13:38:01;;;;;;;5.20;2.07;;;;;;;;;;4941205;29;20023;-65
2023/11/10 13:40:26;;;;;;;4.63;2.10;;;;;;;;;;4949776;29;20031;-64
2023/11/10 13:42:51;;;;;;;10.77;2.30;;;;;;;;;;4930699;29;20448;-65
2023/11/10 13:45:17;;;;;;;5.93;2.80;;;;;;;;;;4936968;29;20428;-64
2023/11/10 13:47:42;;;;;;;9.00;2.87;;;;;;;;;;4949039;29;20431;-65
2023/11/10 13:50:11;;;;;;;8.80;2.60;;;;;;;;;;4948238;29;20510;-64
2023/11/10 13:52:37;;;;;;;7.90;2.67;;;;;;;;;;4939786;29;20031;-64
2023/11/10 13:55:04;;;;;;;4.90;2.40;;;;;;;;;;4945056;29;20087;-65
2023/11/10 13:57:29;;;;;;;6.17;2.27;;;;;;;;;;4929096;29;20023;-65
2023/11/10 13:59:54;;;;;;;6.33;2.10;;;;;;;;;;4943217;29;20114;-64
2023/11/10 14:02:20;;;;;;;7.97;2.00;;;;;;;;;;4942306;28;20059;-64
2023/11/10 14:04:46;;;;;;;5.93;1.97;;;;;;;;;;4946962;29;20027;-65
2023/11/10 14:07:13;;;;;;;6.97;2.13;;;;;;;;;;4947247;29;20033;-64
2023/11/10 14:09:38;;;;;;;6.63;1.60;;;;;;;;;;4948830;29;20042;-65
2023/11/10 14:12:03;;;;;;;7.17;2.00;;;;;;;;;;4945586;29;20482;-64
2023/11/10 14:14:34;;;;;;;6.00;1.80;;;;;;;;;;4939444;29;20492;-64
2023/11/10 14:17:01;;;;;;;8.83;1.67;;;;;;;;;;4934591;29;20036;-62
2023/11/10 14:19:27;;;;;;;8.40;2.10;;;;;;;;;;4933974;29;20195;-64
2023/11/10 14:21:52;;;;;;;8.13;2.20;;;;;;;;;;4947688;29;20110;-64
2023/11/10 14:24:17;;;;;;;6.90;2.10;;;;;;;;;;4935660;29;20039;-62
2023/11/10 14:26:43;;;;;;;12.43;2.00;;;;;;;;;;4927943;29;20488;-63
2023/11/10 14:29:09;;;;;;;7.47;2.03;;;;;;;;;;4933488;29;20067;-63
2023/11/10 14:31:35;;;;;;;5.33;2.10;;;;;;;;;;4926402;29;20042;-63